FASG weather

Schweizer Reneke Airport
Schweizer Reneke, North-West, South Africa

Public forecast

Using degrees Celsius for public forecast. Weather courtesy of forecast.io.

Closest aviation weather report (METAR) to Schweizer Reneke Airport

Closest report is Mmabatho International Airport, 83.1 nm (154.0 km) N. Retrieved 2020/06/03 15:00 UTC (43 minutes ago):

FAMM 031500Z 04003KT CAVOK 22/M00 Q1024 NOSIG

Closest aviation forecast (TAF) to Schweizer Reneke Airport

Forecast is more than 12 hours old.

Closest forecast is Mmabatho International Airport, 83.1 nm (154.0 km) N. Retrieved 2019/01/01 10:00 UTC (1 year ago):

TAF FAMM 010900Z 0110/0118 04008KT 9999 BKN015 BECMG 0111/0113 34010KT BKN025 TX25/0113Z TN22/0118Z